Ash Shariqah, United Arab Emirates
Current Conditions -  °F | °C
As of 4:00 AM on Thursday 29 Jan 2015 (Local Time) from OMSJ Reporting Station
Clear Clear  
Wind Chill: 55°   Ceiling: Unl
Heat Index: 55°   Visibility: 2.5mi
Dew Point: 52°   Wind: 7mph
Humidity: 88%   Direction: 90°E
Pressure: 30.03"   Gusts: NA
Location:  25.37°N, 55.41°E
Report Text: OMSJ 290000Z 09006KT 4000 13/11 Q1017 NSC
Loading
Personal Weather Stations






























Interactive Weather Map New forecast layout! Learn more

10-Day Weather Forecast

Advertisements
Track Severe Weather on mobile